Time;durP1;ratioP1;P1;durP2;ratioP2;P2;SDS_P1;SDS_P2;PMS_P1;PMS_P2;Temp;Humidity;BMP_temperature;BMP_pressure;BME280_temperature;BME280_humidity;BME280_pressure;Samples;Min_cycle;Max_cycle;Signal;HPM_P1;HPM_P2
2022/09/22 00:02:59;;;;;;;6.95;3.33;;;;;;;6.43;100.00;101957.75;5999611;28;20471;-67
2022/09/22 00:06:05;;;;;;;9.07;3.33;;;;;;;6.16;100.00;101969.00;6000254;28;20030;-66
2022/09/22 00:09:01;;;;;;;7.28;3.40;;;;;;;6.08;100.00;101963.34;5999726;28;20027;-66
2022/09/22 00:11:57;;;;;;;9.32;4.93;;;;;;;6.07;100.00;101975.63;5999287;28;20082;-66
2022/09/22 00:14:52;;;;;;;10.00;4.07;;;;;;;6.39;100.00;101974.66;6000013;28;20089;-66
2022/09/22 00:17:48;;;;;;;7.78;3.70;;;;;;;6.73;100.00;101970.06;5999413;28;20105;-66
2022/09/22 00:20:43;;;;;;;11.20;4.00;;;;;;;7.26;100.00;101951.00;5998789;28;20101;-66
2022/09/22 00:23:40;;;;;;;11.67;4.27;;;;;;;7.49;100.00;101950.44;5998066;28;20038;-66
2022/09/22 00:26:36;;;;;;;8.63;4.07;;;;;;;7.46;100.00;101955.91;5998633;28;20034;-66
2022/09/22 00:29:32;;;;;;;7.35;3.80;;;;;;;8.04;100.00;101959.19;6000192;28;20466;-66
2022/09/22 00:32:27;;;;;;;9.37;3.90;;;;;;;7.53;100.00;101962.47;5998506;28;20026;-66
2022/09/22 00:35:22;;;;;;;9.60;3.55;;;;;;;6.76;100.00;101956.72;5999053;28;20031;-66
2022/09/22 00:38:18;;;;;;;7.03;3.33;;;;;;;6.63;100.00;101961.00;5999042;28;20035;-66
2022/09/22 00:41:39;;;;;;;6.88;3.45;;;;;;;7.11;100.00;101958.06;5998481;28;20479;-66
2022/09/22 00:44:39;;;;;;;8.07;3.58;;;;;;;7.37;100.00;101967.88;5999120;28;20046;-65
2022/09/22 00:47:38;;;;;;;8.15;3.50;;;;;;;7.46;99.44;101955.91;5995332;28;20502;-66
2022/09/22 00:50:33;;;;;;;8.15;3.33;;;;;;;7.60;98.91;101958.53;5998293;28;20501;-66
2022/09/22 00:53:30;;;;;;;9.50;4.00;;;;;;;7.79;100.00;101964.34;5997888;28;20039;-66
2022/09/22 00:56:29;;;;;;;7.00;3.17;;;;;;;7.64;100.00;101954.72;5998382;28;20278;-66
2022/09/22 00:59:24;;;;;;;8.40;3.88;;;;;;;7.74;99.64;101951.44;5997502;28;20027;-65
2022/09/22 01:02:20;;;;;;;6.25;3.17;;;;;;;7.25;96.81;101957.22;5997945;28;21612;-66
2022/09/22 01:05:17;;;;;;;7.25;2.90;;;;;;;6.71;97.87;101949.09;5998587;28;20035;-66
2022/09/22 01:08:12;;;;;;;5.72;3.03;;;;;;;6.58;98.83;101942.81;5997714;28;20117;-66
2022/09/22 01:11:08;;;;;;;7.60;3.45;;;;;;;6.77;99.83;101946.06;5996197;28;20042;-66
2022/09/22 01:14:28;;;;;;;5.88;2.90;;;;;;;6.92;99.52;101939.88;5998926;28;20086;-66
2022/09/22 01:17:56;;;;;;;7.88;3.10;;;;;;;6.70;99.14;101954.44;5997617;28;20046;-66
2022/09/22 01:21:13;;;;;;;6.40;2.67;;;;;;;7.06;100.00;101953.09;6011911;28;20041;-66
2022/09/22 01:24:39;;;;;;;5.35;2.75;;;;;;;7.24;100.00;101948.47;5997928;28;20035;-66
2022/09/22 01:27:57;;;;;;;5.20;3.25;;;;;;;7.34;100.00;101946.94;5998459;28;20645;-66
2022/09/22 01:31:04;;;;;;;5.45;3.03;;;;;;;7.44;100.00;101941.97;5997903;28;20113;-66
2022/09/22 01:34:03;;;;;;;5.05;3.25;;;;;;;7.14;99.58;101950.84;5997192;28;20155;-66
2022/09/22 01:37:10;;;;;;;7.78;3.10;;;;;;;6.41;98.34;101949.06;6000089;28;20463;-66
2022/09/22 01:40:15;;;;;;;9.30;3.05;;;;;;;5.97;100.00;101943.72;6001259;28;20034;-66
2022/09/22 01:43:32;;;;;;;5.53;2.72;;;;;;;5.66;100.00;101953.34;6001557;28;20451;-66
2022/09/22 01:46:36;;;;;;;5.70;3.00;;;;;;;5.31;100.00;101935.09;6002644;28;20065;-66
2022/09/22 01:49:34;;;;;;;5.95;2.90;;;;;;;5.14;100.00;101944.78;6002818;28;20030;-66
2022/09/22 01:52:31;;;;;;;5.65;3.30;;;;;;;5.57;100.00;101954.72;6000732;28;20141;-66
2022/09/22 01:55:30;;;;;;;5.80;3.35;;;;;;;6.27;100.00;101932.38;6001447;28;20118;-66
2022/09/22 01:58:34;;;;;;;6.80;3.72;;;;;;;6.11;100.00;101944.72;6001098;28;20053;-66
2022/09/22 02:01:34;;;;;;;8.63;4.07;;;;;;;6.47;100.00;101926.78;6000095;28;20043;-66
2022/09/22 02:04:44;;;;;;;8.40;3.97;;;;;;;7.00;100.00;101929.72;6001477;28;20104;-66
2022/09/22 02:07:42;;;;;;;6.75;3.80;;;;;;;7.13;100.00;101932.44;6002060;28;20066;-66
2022/09/22 02:10:41;;;;;;;6.53;3.50;;;;;;;6.69;100.00;101921.09;6001576;28;20050;-66
2022/09/22 02:13:36;;;;;;;7.80;3.28;;;;;;;6.32;100.00;101935.59;6012142;28;20034;-66
2022/09/22 02:16:32;;;;;;;8.68;3.38;;;;;;;6.61;100.00;101921.56;6021333;28;20470;-66
2022/09/22 02:19:33;;;;;;;7.07;3.30;;;;;;;6.90;100.00;101931.19;6002121;28;20045;-66
2022/09/22 02:22:31;;;;;;;7.05;3.47;;;;;;;6.90;100.00;101930.38;6000051;28;20035;-66
2022/09/22 02:25:26;;;;;;;8.35;3.15;;;;;;;6.55;100.00;101927.19;6000843;28;20043;-66
2022/09/22 02:28:22;;;;;;;8.95;3.35;;;;;;;6.15;100.00;101940.97;6004509;28;20146;-66
2022/09/22 02:31:19;;;;;;;5.30;3.15;;;;;;;6.39;100.00;101929.00;6001320;28;20049;-66
2022/09/22 02:34:15;;;;;;;8.23;2.95;;;;;;;5.80;100.00;101930.63;6000279;28;20035;-66
2022/09/22 02:37:30;;;;;;;5.83;2.83;;;;;;;5.43;100.00;101941.47;6002030;28;20046;-66
2022/09/22 02:41:00;;;;;;;4.10;2.65;;;;;;;5.12;100.00;101926.50;6009713;28;20034;-66
2022/09/22 02:44:02;;;;;;;7.68;3.03;;;;;;;5.46;100.00;101925.53;6011650;28;20038;-66
2022/09/22 02:47:18;;;;;;;7.70;3.55;;;;;;;6.39;100.00;101919.34;6000170;28;20059;-66
2022/09/22 02:50:17;;;;;;;8.65;3.53;;;;;;;6.27;100.00;101921.84;5999006;28;20445;-66
2022/09/22 02:53:16;;;;;;;10.15;3.33;;;;;;;6.56;100.00;101906.03;6000648;28;20027;-66
2022/09/22 02:56:11;;;;;;;7.13;3.15;;;;;;;6.42;100.00;101910.41;6000773;28;20046;-66
2022/09/22 02:59:08;;;;;;;6.00;2.97;;;;;;;6.56;100.00;101899.91;6004315;28;20100;-66
2022/09/22 03:02:03;;;;;;;7.05;3.22;;;;;;;6.94;100.00;101901.09;6012938;28;20058;-66
2022/09/22 03:04:58;;;;;;;6.93;3.57;;;;;;;7.01;100.00;101899.75;6001166;28;20054;-66
2022/09/22 03:07:54;;;;;;;8.10;3.60;;;;;;;7.09;100.00;101896.66;6011004;28;20030;-66
2022/09/22 03:10:49;;;;;;;6.90;3.90;;;;;;;7.12;100.00;101904.41;6023891;28;20069;-66
2022/09/22 03:13:44;;;;;;;12.43;4.03;;;;;;;7.11;100.00;101897.41;6008625;28;20479;-66
2022/09/22 03:16:40;;;;;;;10.17;4.07;;;;;;;7.11;100.00;101898.25;6001015;28;20042;-66
2022/09/22 03:19:35;;;;;;;8.17;4.23;;;;;;;7.03;100.00;101889.97;6001017;28;20074;-66
2022/09/22 03:22:31;;;;;;;8.52;4.15;;;;;;;7.07;100.00;101880.06;5999576;28;20626;-66
2022/09/22 03:25:27;;;;;;;7.32;3.58;;;;;;;6.90;100.00;101888.19;6000645;28;20027;-66
2022/09/22 03:28:22;;;;;;;9.80;3.80;;;;;;;6.48;98.35;101884.56;6000349;28;20031;-66
2022/09/22 03:31:17;;;;;;;6.43;3.20;;;;;;;6.39;97.94;101886.88;6000129;28;20470;-66
2022/09/22 03:34:12;;;;;;;8.75;3.30;;;;;;;6.20;97.83;101876.56;6014681;28;20073;-66
2022/09/22 03:37:08;;;;;;;6.60;3.07;;;;;;;6.19;98.15;101890.69;6023774;28;20123;-66
2022/09/22 03:40:04;;;;;;;7.93;3.87;;;;;;;6.09;98.91;101872.88;6023764;28;20493;-67
2022/09/22 03:42:59;;;;;;;9.27;3.45;;;;;;;5.93;98.90;101881.66;6013568;28;20151;-66
2022/09/22 03:45:58;;;;;;;6.80;3.38;;;;;;;5.85;99.37;101896.16;6000327;28;20438;-66
2022/09/22 03:48:54;;;;;;;6.78;3.53;;;;;;;6.31;99.80;101878.56;6000151;28;20031;-66
2022/09/22 03:51:49;;;;;;;8.27;3.83;;;;;;;6.65;100.00;101867.72;5999272;28;20500;-66
2022/09/22 03:54:44;;;;;;;6.43;3.10;;;;;;;6.66;100.00;101869.41;5999756;28;20038;-66
2022/09/22 03:57:40;;;;;;;8.00;3.07;;;;;;;6.57;98.76;101867.34;5999801;28;20027;-66
2022/09/22 04:00:35;;;;;;;5.82;3.10;;;;;;;6.29;97.98;101876.03;5999416;28;20066;-66
2022/09/22 04:03:31;;;;;;;8.90;2.93;;;;;;;6.30;97.55;101869.00;5999408;28;20070;-66
2022/09/22 04:06:26;;;;;;;5.95;2.83;;;;;;;6.06;96.99;101860.72;5999752;28;20030;-66
2022/09/22 04:09:22;;;;;;;6.43;2.73;;;;;;;5.54;97.14;101875.13;5999790;28;20434;-66
2022/09/22 04:12:17;;;;;;;4.97;2.70;;;;;;;5.63;100.00;101879.84;5998434;28;20030;-66
2022/09/22 04:15:12;;;;;;;6.43;3.30;;;;;;;6.40;100.00;101862.22;5999661;28;20274;-66
2022/09/22 04:18:08;;;;;;;6.30;3.08;;;;;;;6.71;100.00;101872.66;5999446;28;20117;-66
2022/09/22 04:21:04;;;;;;;6.28;2.85;;;;;;;6.72;100.00;101874.31;5998594;28;20042;-66
2022/09/22 04:23:59;;;;;;;6.80;2.83;;;;;;;6.80;100.00;101869.44;5999222;28;20398;-66
2022/09/22 04:26:55;;;;;;;6.13;3.17;;;;;;;6.59;98.42;101862.81;5999287;28;20038;-66
2022/09/22 04:29:51;;;;;;;6.03;2.65;;;;;;;6.60;97.32;101865.34;5999386;28;20038;-66
2022/09/22 04:32:47;;;;;;;7.93;3.17;;;;;;;6.81;99.07;101857.97;5998344;28;20061;-66
2022/09/22 04:35:42;;;;;;;6.00;2.63;;;;;;;6.93;100.00;101870.38;5999399;28;20386;-66
2022/09/22 04:38:37;;;;;;;9.65;3.47;;;;;;;6.99;100.00;101863.88;5999089;28;20030;-66
2022/09/22 04:41:33;;;;;;;10.33;3.43;;;;;;;6.91;100.00;101856.44;5998219;28;20498;-66
2022/09/22 04:44:28;;;;;;;8.50;3.97;;;;;;;6.83;100.00;101863.97;5999121;28;20118;-66
2022/09/22 04:47:23;;;;;;;8.07;3.50;;;;;;;7.04;100.00;101880.25;5999183;28;20743;-66
2022/09/22 04:50:20;;;;;;;9.67;3.13;;;;;;;6.96;100.00;101861.41;5998556;28;20310;-67
2022/09/22 04:53:15;;;;;;;10.00;3.70;;;;;;;6.63;100.00;101864.34;5999030;28;20047;-67
2022/09/22 04:56:11;;;;;;;10.90;3.42;;;;;;;6.68;100.00;101854.38;5998969;28;20038;-67
2022/09/22 04:59:06;;;;;;;6.17;3.40;;;;;;;6.70;100.00;101870.94;5998955;28;20082;-67
2022/09/22 05:02:03;;;;;;;7.37;3.57;;;;;;;5.86;98.45;101861.88;5997797;28;20030;-67
2022/09/22 05:04:58;;;;;;;6.57;3.10;;;;;;;5.97;99.27;101856.84;5999178;28;20031;-67
2022/09/22 05:07:54;;;;;;;5.90;3.10;;;;;;;6.30;98.76;101855.81;5998719;28;20034;-67
2022/09/22 05:10:49;;;;;;;8.37;3.13;;;;;;;6.40;97.72;101859.59;5998026;28;20034;-67
2022/09/22 05:13:44;;;;;;;6.10;2.77;;;;;;;6.25;96.74;101868.41;6003215;28;20030;-67
2022/09/22 05:16:43;;;;;;;5.80;2.57;;;;;;;5.63;97.47;101871.97;6019304;28;20029;-67
2022/09/22 05:19:39;;;;;;;7.78;3.08;;;;;;;5.79;98.55;101859.63;6027228;28;20058;-66
2022/09/22 05:22:34;;;;;;;8.07;3.53;;;;;;;5.71;97.92;101869.75;6009028;28;20077;-66
2022/09/22 05:25:29;;;;;;;7.50;3.53;;;;;;;5.31;98.48;101866.72;6024278;28;20049;-66
2022/09/22 05:28:24;;;;;;;5.43;3.10;;;;;;;5.07;100.00;101875.09;6007869;28;20038;-67
2022/09/22 05:31:20;;;;;;;5.77;3.20;;;;;;;4.82;100.00;101870.28;6005521;28;20042;-67
2022/09/22 05:34:15;;;;;;;7.70;2.90;;;;;;;4.97;100.00;101882.63;6003402;28;20046;-67
2022/09/22 05:37:11;;;;;;;5.70;2.83;;;;;;;4.95;100.00;101878.34;6000335;28;20113;-67
2022/09/22 05:40:07;;;;;;;4.80;2.58;;;;;;;5.10;100.00;101862.63;6009023;28;20064;-67
2022/09/22 05:43:02;;;;;;;6.57;3.35;;;;;;;5.51;100.00;101865.63;6007437;28;20038;-67
2022/09/22 05:45:57;;;;;;;5.80;3.08;;;;;;;6.06;100.00;101863.34;6001908;28;20039;-67
2022/09/22 05:48:53;;;;;;;8.37;3.50;;;;;;;7.36;100.00;101858.00;6002892;28;20034;-66
2022/09/22 05:51:51;;;;;;;10.67;3.97;;;;;;;7.89;100.00;101867.72;6002182;28;20039;-67
2022/09/22 05:54:46;;;;;;;8.90;3.53;;;;;;;8.11;98.08;101875.09;6002252;28;20312;-66
2022/09/22 05:57:42;;;;;;;9.40;3.97;;;;;;;8.05;96.20;101871.06;6002503;28;20042;-67
2022/09/22 06:00:39;;;;;;;9.43;3.30;;;;;;;8.09;95.21;101882.28;6006267;28;20040;-67
2022/09/22 06:03:34;;;;;;;7.35;2.97;;;;;;;8.00;96.20;101878.44;6002450;28;20035;-67
2022/09/22 06:06:29;;;;;;;11.13;3.60;;;;;;;8.70;96.28;101873.72;6001263;28;20490;-67
2022/09/22 06:09:24;;;;;;;8.80;3.57;;;;;;;9.01;94.29;101890.97;6004080;28;20034;-67
2022/09/22 06:12:20;;;;;;;9.83;3.60;;;;;;;9.10;92.68;101883.25;6008181;28;20040;-67
2022/09/22 06:15:15;;;;;;;8.93;3.50;;;;;;;8.86;89.59;101875.22;6017122;28;20027;-67
2022/09/22 06:18:12;;;;;;;7.80;3.63;;;;;;;8.69;88.91;101882.63;6001573;28;20043;-67
2022/09/22 06:21:07;;;;;;;9.60;4.15;;;;;;;8.66;91.04;101893.41;6000892;28;20396;-67
2022/09/22 06:24:03;;;;;;;9.93;3.83;;;;;;;7.82;92.15;101887.56;6000499;28;20502;-67
2022/09/22 06:26:58;;;;;;;8.02;4.15;;;;;;;8.08;94.73;101897.28;6008934;28;20321;-67
2022/09/22 06:29:54;;;;;;;7.63;3.38;;;;;;;8.10;94.16;101894.56;6001352;28;20030;-66
2022/09/22 06:32:53;;;;;;;8.20;3.33;;;;;;;8.58;91.63;101885.16;6002571;28;20075;-66
2022/09/22 06:35:48;;;;;;;7.88;3.40;;;;;;;8.45;93.83;101892.22;6002229;28;20073;-66
2022/09/22 06:38:43;;;;;;;8.48;3.20;;;;;;;8.84;92.79;101886.84;6000715;28;20046;-67
2022/09/22 06:41:39;;;;;;;8.03;3.60;;;;;;;9.18;89.48;101886.19;5999844;28;20035;-66
2022/09/22 06:44:34;;;;;;;10.32;3.10;;;;;;;9.16;89.25;101890.72;6000967;28;20038;-66
2022/09/22 06:47:31;;;;;;;9.63;3.20;;;;;;;9.18;89.93;101880.91;6001171;28;20035;-67
2022/09/22 06:50:31;;;;;;;6.57;3.15;;;;;;;9.35;88.17;101888.47;6000494;28;20030;-66
2022/09/22 06:53:26;;;;;;;7.07;2.85;;;;;;;9.52;89.78;101895.22;6000772;28;20031;-67
2022/09/22 06:56:23;;;;;;;7.53;3.53;;;;;;;9.53;87.96;101892.47;6000753;28;20126;-67
2022/09/22 06:59:19;;;;;;;9.27;3.05;;;;;;;9.31;88.38;101902.06;6000691;28;20054;-66
2022/09/22 07:02:15;;;;;;;8.85;3.42;;;;;;;9.24;88.24;101885.75;5999301;28;20058;-66
2022/09/22 07:05:10;;;;;;;9.70;4.10;;;;;;;9.62;87.52;101884.81;6015105;28;20030;-67
2022/09/22 07:08:07;;;;;;;15.57;4.15;;;;;;;9.70;86.03;101879.81;6002222;28;20039;-66
2022/09/22 07:11:09;;;;;;;19.33;5.45;;;;;;;10.06;84.24;101883.25;5999533;28;20489;-66
2022/09/22 07:14:04;;;;;;;14.63;4.53;;;;;;;9.99;84.30;101878.50;5998432;28;20447;-66
2022/09/22 07:17:00;;;;;;;10.60;4.00;;;;;;;10.29;84.75;101892.16;5999845;28;20033;-66
2022/09/22 07:19:56;;;;;;;17.30;5.03;;;;;;;10.35;83.62;101897.00;5999578;28;20031;-66
2022/09/22 07:22:59;;;;;;;16.55;5.03;;;;;;;10.48;83.51;101884.50;5999200;28;20042;-66
2022/09/22 07:25:59;;;;;;;12.65;5.05;;;;;;;11.04;82.03;101887.22;5988437;28;20925;-67
2022/09/22 07:28:57;;;;;;;15.40;4.18;;;;;;;11.69;79.15;101888.19;5999535;28;20042;-67
2022/09/22 07:31:54;;;;;;;20.52;5.57;;;;;;;11.94;78.06;101887.03;5999163;28;20565;-66
2022/09/22 07:34:51;;;;;;;14.63;5.28;;;;;;;11.98;77.06;101875.19;6000632;28;20080;-67
2022/09/22 07:37:46;;;;;;;13.00;5.20;;;;;;;12.22;75.55;101885.59;6000009;28;20886;-66
2022/09/22 07:40:51;;;;;;;30.27;7.68;;;;;;;12.78;73.67;101888.78;5999023;28;20035;-67
2022/09/22 07:43:51;;;;;;;21.40;6.55;;;;;;;12.85;72.72;101876.63;5999977;28;20046;-67
2022/09/22 07:46:46;;;;;;;20.63;6.35;;;;;;;12.98;72.95;101882.59;5999564;28;20034;-67
2022/09/22 07:49:43;;;;;;;18.83;5.90;;;;;;;13.22;72.38;101882.28;5999213;28;20089;-66
2022/09/22 07:52:39;;;;;;;20.80;6.30;;;;;;;12.97;71.09;101847.13;5998694;28;20061;-67
2022/09/22 07:55:35;;;;;;;18.33;5.13;;;;;;;13.64;69.57;101876.66;5999137;28;20034;-67
2022/09/22 07:58:34;;;;;;;12.55;4.43;;;;;;;13.41;70.33;101885.88;5999185;28;20031;-66
2022/09/22 08:01:32;;;;;;;17.60;5.18;;;;;;;13.75;68.66;101881.06;5999357;28;20042;-67
2022/09/22 08:04:30;;;;;;;18.35;4.43;;;;;;;13.19;71.80;101874.56;5999351;28;20057;-66
2022/09/22 08:07:30;;;;;;;13.40;3.85;;;;;;;13.07;73.04;101887.16;5998705;28;20034;-67
2022/09/22 08:10:26;;;;;;;14.48;4.20;;;;;;;12.80;73.77;101876.19;5998911;28;20126;-66
2022/09/22 08:13:22;;;;;;;16.13;3.80;;;;;;;12.44;73.56;101888.16;5998256;28;20031;-67
2022/09/22 08:16:27;;;;;;;8.80;3.13;;;;;;;12.38;76.21;101880.66;6002336;28;20031;-67
2022/09/22 08:19:22;;;;;;;9.48;2.90;;;;;;;12.43;76.58;101889.09;5998983;28;20073;-66
2022/09/22 08:22:17;;;;;;;8.30;2.58;;;;;;;12.52;76.77;101885.69;6006414;28;20034;-66
2022/09/22 08:25:13;;;;;;;7.17;2.20;;;;;;;12.70;76.19;101881.44;6009850;28;20038;-66
2022/09/22 08:28:09;;;;;;;7.73;2.60;;;;;;;12.81;76.43;101877.84;5998256;28;20289;-67
2022/09/22 08:31:10;;;;;;;4.22;1.83;;;;;;;12.76;74.98;101896.06;5997295;28;20054;-66
2022/09/22 08:34:07;;;;;;;5.80;2.17;;;;;;;12.87;74.46;101882.66;5998759;28;20482;-67
2022/09/22 08:37:05;;;;;;;8.10;1.98;;;;;;;12.80;73.03;101881.53;5997401;28;20035;-67
2022/09/22 08:40:00;;;;;;;8.85;2.63;;;;;;;12.67;73.29;101897.66;6018970;28;20378;-67
2022/09/22 08:42:58;;;;;;;4.38;1.58;;;;;;;12.78;74.04;101894.94;6009108;28;20125;-67
2022/09/22 08:45:54;;;;;;;4.72;1.70;;;;;;;12.87;73.79;101894.16;5997559;28;20502;-67
2022/09/22 08:52:08;;;;;;;4.93;1.60;;;;;;;13.95;69.56;101882.75;5997379;28;20031;-67
2022/09/22 08:55:06;;;;;;;9.30;2.40;;;;;;;14.30;67.49;101890.19;5996937;28;20034;-67
2022/09/22 08:58:17;;;;;;;6.70;2.30;;;;;;;14.48;66.65;101879.69;6005868;28;20034;-67
2022/09/22 09:01:36;;;;;;;4.43;2.00;;;;;;;14.78;66.80;101872.31;6017076;28;20031;-67
2022/09/22 09:04:43;;;;;;;4.50;1.70;;;;;;;14.84;65.83;101881.56;5997443;28;20717;-67
2022/09/22 09:07:49;;;;;;;6.88;2.00;;;;;;;15.30;65.15;101883.38;5998287;28;20058;-67
2022/09/22 09:10:55;;;;;;;5.05;1.50;;;;;;;15.21;63.93;101885.13;5996675;28;20089;-67
2022/09/22 09:14:01;;;;;;;;;;;;;;;15.68;61.53;101882.38;5998650;28;20027;-67
2022/09/22 09:17:20;;;;;;;6.85;1.77;;;;;;;16.49;59.82;101883.97;5997646;28;20388;-67
2022/09/22 09:20:37;;;;;;;8.25;2.10;;;;;;;16.22;60.63;101871.53;5996285;28;20402;-67
2022/09/22 09:23:48;;;;;;;5.70;1.40;;;;;;;16.12;59.54;101881.47;5996634;28;20023;-67
2022/09/22 09:26:45;;;;;;;7.63;2.42;;;;;;;15.84;60.22;101874.50;6013609;28;20089;-67
2022/09/22 09:29:55;;;;;;;8.32;3.00;;;;;;;15.84;59.74;101877.19;5997187;28;20038;-67
2022/09/22 09:33:01;;;;;;;5.38;1.60;;;;;;;16.29;58.52;101869.06;5996596;28;20038;-67
2022/09/22 09:35:57;;;;;;;5.50;1.75;;;;;;;16.51;60.10;101882.81;5996974;28;20035;-67
2022/09/22 09:38:54;;;;;;;6.47;1.88;;;;;;;16.75;58.85;101892.03;5997191;28;20039;-67
2022/09/22 09:41:50;;;;;;;5.68;1.60;;;;;;;16.87;58.55;101862.16;5996035;28;20065;-67
2022/09/22 09:44:51;;;;;;;3.92;1.70;;;;;;;16.88;57.01;101871.03;5997942;28;20047;-67
2022/09/22 09:48:04;;;;;;;5.60;1.73;;;;;;;17.45;56.14;101877.53;6002101;28;20065;-67
2022/09/22 09:51:04;;;;;;;4.43;1.60;;;;;;;17.67;56.32;101861.69;5997620;28;20359;-67
2022/09/22 09:54:04;;;;;;;;;;;;;;;17.08;56.13;101869.81;6011501;28;20039;-67
2022/09/22 09:57:07;;;;;;;7.95;1.45;;;;;;;17.12;55.79;101858.59;5998112;28;20400;-67
2022/09/22 10:00:32;;;;;;;5.13;1.45;;;;;;;17.04;54.83;101855.06;6002172;28;20729;-67
2022/09/22 10:03:35;;;;;;;7.47;2.00;;;;;;;16.97;52.89;101878.13;6002230;28;20490;-67
2022/09/22 10:06:31;;;;;;;5.43;1.40;;;;;;;17.60;53.68;101859.81;6001655;28;20034;-67
2022/09/22 10:09:27;;;;;;;6.18;1.25;;;;;;;17.80;49.91;101856.69;6002310;28;20082;-67
2022/09/22 10:12:28;;;;;;;4.97;1.65;;;;;;;17.21;52.70;101843.38;6001126;28;20037;-67
2022/09/22 10:15:25;;;;;;;6.50;2.47;;;;;;;17.06;53.28;101845.00;6009279;28;20378;-67
2022/09/22 10:18:23;;;;;;;4.13;1.63;;;;;;;17.08;52.92;101851.88;6017460;28;20102;-67
2022/09/22 10:21:21;;;;;;;7.22;1.67;;;;;;;17.69;51.49;101832.03;6025247;28;20042;-67
2022/09/22 10:24:31;;;;;;;4.85;1.50;;;;;;;18.03;53.88;101842.63;6025404;28;20030;-67
2022/09/22 10:27:28;;;;;;;3.67;1.60;;;;;;;18.03;49.40;101835.41;5999872;28;20035;-67
2022/09/22 10:30:23;;;;;;;5.38;1.40;;;;;;;17.62;51.01;101829.16;6000819;28;20748;-67
2022/09/22 10:33:20;;;;;;;2.45;1.00;;;;;;;18.11;48.50;101837.25;6005430;28;20070;-67
2022/09/22 10:36:15;;;;;;;4.53;1.52;;;;;;;17.79;50.55;101833.53;6000805;28;20070;-67
2022/09/22 10:39:14;;;;;;;4.13;1.23;;;;;;;17.37;51.31;101824.69;5999587;28;20431;-67
2022/09/22 10:42:31;;;;;;;8.65;1.35;;;;;;;17.02;53.15;101838.28;5998654;28;20572;-67
2022/09/22 10:45:41;;;;;;;4.50;1.30;;;;;;;17.53;52.19;101824.75;5988968;28;20050;-67
2022/09/22 10:48:44;;;;;;;4.75;1.60;;;;;;;17.65;49.99;101834.19;5999477;28;20035;-67
2022/09/22 10:51:46;;;;;;;3.88;1.30;;;;;;;17.91;50.72;101830.53;6000067;28;20048;-67
2022/09/22 10:55:00;;;;;;;3.50;2.08;;;;;;;17.88;48.58;101825.50;5999373;28;20059;-67
2022/09/22 10:58:12;;;;;;;2.65;1.30;;;;;;;18.58;47.12;101805.19;5999273;28;20509;-68
2022/09/22 11:01:50;;;;;;;4.82;1.58;;;;;;;18.04;49.73;101809.41;6002037;28;20125;-67
2022/09/22 11:04:51;;;;;;;2.90;1.35;;;;;;;18.36;48.27;101814.75;5986758;28;20038;-67
2022/09/22 11:14:52;;;;;;;4.47;1.35;;;;;;;17.35;49.39;101797.19;5988499;28;20418;-67
2022/09/22 11:17:59;;;;;;;2.60;1.00;;;;;;;17.57;49.86;101801.97;5989203;28;20055;-67
2022/09/22 11:21:18;;;;;;;4.00;1.40;;;;;;;18.23;47.82;101799.19;5999657;28;20034;-67
2022/09/22 11:24:43;;;;;;;2.78;1.27;;;;;;;18.30;47.79;101785.88;5999896;28;20102;-67
2022/09/22 11:28:03;;;;;;;3.47;1.17;;;;;;;18.21;47.04;101785.06;6010575;28;20205;-68
2022/09/22 11:30:59;;;;;;;1.75;0.98;;;;;;;18.52;46.88;101776.31;6023370;28;20037;-67
2022/09/22 11:34:17;;;;;;;1.90;1.00;;;;;;;18.93;45.05;101786.78;6004351;28;20145;-67
2022/09/22 11:37:50;;;;;;;2.58;0.80;;;;;;;18.60;45.85;101784.34;5996143;28;20049;-68
2022/09/22 11:41:14;;;;;;;3.30;1.25;;;;;;;18.76;44.53;101771.72;6000015;28;20058;-68
2022/09/22 11:44:34;;;;;;;2.50;1.20;;;;;;;18.02;46.19;101774.66;5999864;28;20122;-68
2022/09/22 11:47:42;;;;;;;5.03;1.55;;;;;;;17.35;47.60;101765.00;5997627;28;20047;-68
2022/09/22 11:50:55;;;;;;;3.47;1.17;;;;;;;17.51;49.19;101765.03;6007947;28;20419;-68
2022/09/22 11:54:18;;;;;;;3.65;1.42;;;;;;;17.84;47.72;101757.91;5999198;28;20027;-68
2022/09/22 11:57:16;;;;;;;5.53;1.25;;;;;;;18.22;47.32;101751.84;5999802;28;20085;-67
2022/09/22 12:00:16;;;;;;;3.40;1.30;;;;;;;18.19;46.87;101738.75;5999795;28;20027;-68
2022/09/22 12:03:19;;;;;;;4.05;1.45;;;;;;;18.21;46.42;101746.63;6003289;28;20054;-68
2022/09/22 12:06:18;;;;;;;3.95;1.48;;;;;;;18.10;47.27;101739.75;6014470;28;20031;-67
2022/09/22 12:09:25;;;;;;;3.72;1.27;;;;;;;17.82;46.54;101736.59;5998466;28;20332;-68
2022/09/22 12:12:21;;;;;;;2.97;1.30;;;;;;;17.25;48.12;101765.19;6018894;28;20045;-67
2022/09/22 12:15:28;;;;;;;4.80;1.50;;;;;;;16.92;48.84;101747.28;6021195;28;20042;-68
2022/09/22 12:18:27;;;;;;;;;;;;;;;16.92;49.04;101751.81;6015114;28;20120;-68
2022/09/22 12:21:41;;;;;;;5.63;1.50;;;;;;;16.99;49.00;101744.78;6022836;28;19969;-68
2022/09/22 12:24:36;;;;;;;3.33;1.50;;;;;;;17.34;48.40;101736.50;6016811;28;20042;-68
2022/09/22 12:27:33;;;;;;;4.33;1.60;;;;;;;18.03;47.93;101727.19;5999270;28;20476;-68
2022/09/22 12:30:28;;;;;;;3.63;1.70;;;;;;;18.53;46.54;101735.00;6020463;28;20482;-68
2022/09/22 12:33:24;;;;;;;5.77;3.17;;;;;;;18.76;44.09;101726.03;6007935;28;20046;-68
2022/09/22 12:36:46;;;;;;;4.32;2.22;;;;;;;18.87;44.69;101727.47;5997607;28;20042;-67
2022/09/22 12:39:43;;;;;;;3.58;1.65;;;;;;;18.88;44.80;101719.25;5995766;28;20077;-68
2022/09/22 12:42:40;;;;;;;7.13;2.83;;;;;;;19.26;43.74;101727.44;6012570;28;20168;-67
2022/09/22 12:45:40;;;;;;;7.38;2.33;;;;;;;19.37;43.91;101703.66;6014176;28;20039;-68
2022/09/22 12:48:36;;;;;;;8.88;3.95;;;;;;;19.28;43.03;101720.03;5998928;28;20370;-68
2022/09/22 12:51:32;;;;;;;5.25;1.92;;;;;;;19.27;42.87;101716.50;5998105;28;20070;-68
2022/09/22 12:54:35;;;;;;;3.13;1.38;;;;;;;19.24;43.80;101716.84;5999054;28;20039;-68
2022/09/22 12:57:43;;;;;;;9.30;1.75;;;;;;;18.76;45.32;101709.91;5999371;28;20419;-68
2022/09/22 13:00:40;;;;;;;4.13;1.45;;;;;;;19.37;43.50;101702.81;5998331;28;20110;-68
2022/09/22 13:03:35;;;;;;;5.68;1.77;;;;;;;18.83;43.87;101713.53;6011573;28;20034;-68
2022/09/22 13:06:30;;;;;;;3.63;1.40;;;;;;;18.91;43.26;101701.94;6011728;28;20375;-68
2022/09/22 13:09:28;;;;;;;4.45;1.50;;;;;;;18.78;43.88;101697.09;6020933;28;20043;-68
2022/09/22 13:12:26;;;;;;;6.18;1.88;;;;;;;18.78;45.03;101699.78;6011608;28;20034;-68
2022/09/22 13:15:22;;;;;;;3.58;1.33;;;;;;;18.91;44.40;101694.72;5998612;28;20034;-67
2022/09/22 13:18:32;;;;;;;6.20;1.80;;;;;;;18.58;45.45;101701.25;6000078;28;20061;-68
2022/09/22 13:21:29;;;;;;;4.07;1.30;;;;;;;18.22;45.62;101690.06;6021586;28;20034;-68
2022/09/22 13:24:26;;;;;;;3.28;1.25;;;;;;;18.95;45.63;101687.97;6012726;28;20035;-68
2022/09/22 13:27:21;;;;;;;2.80;1.30;;;;;;;19.51;43.11;101688.63;6004882;28;20047;-68
2022/09/22 13:30:16;;;;;;;3.20;1.13;;;;;;;18.96;43.94;101673.50;6018515;28;20046;-68
2022/09/22 13:33:21;;;;;;;5.00;1.33;;;;;;;18.42;45.49;101685.16;6024030;28;20030;-68
2022/09/22 13:36:17;;;;;;;5.10;1.50;;;;;;;18.76;43.70;101660.66;6018508;28;20860;-68
2022/09/22 13:39:16;;;;;;;2.70;1.48;;;;;;;18.41;43.87;101662.81;6001375;28;20031;-67
2022/09/22 13:42:14;;;;;;;3.80;1.10;;;;;;;18.25;44.00;101672.78;6002064;28;20045;-67
2022/09/22 13:45:22;;;;;;;3.38;1.02;;;;;;;18.48;43.44;101662.16;6012011;28;20030;-68
2022/09/22 13:48:19;;;;;;;1.85;0.85;;;;;;;18.60;43.34;101666.13;6002626;28;20043;-68
2022/09/22 13:51:15;;;;;;;2.00;1.10;;;;;;;18.67;44.29;101657.19;6002233;28;20035;-68
2022/09/22 13:54:18;;;;;;;3.83;1.25;;;;;;;18.47;43.29;101666.66;6002024;28;20122;-68
2022/09/22 13:57:20;;;;;;;5.78;1.13;;;;;;;18.98;42.37;101658.03;6001567;28;20732;-68
2022/09/22 14:00:27;;;;;;;4.35;1.38;;;;;;;19.02;42.85;101661.22;6001930;28;20027;-68
2022/09/22 14:03:23;;;;;;;2.38;1.00;;;;;;;19.57;42.51;101640.28;6001714;28;20034;-65
2022/09/22 14:06:23;;;;;;;5.37;1.13;;;;;;;19.50;42.26;101643.91;6003664;28;20065;-68
2022/09/22 14:09:19;;;;;;;5.45;1.20;;;;;;;19.49;41.17;101632.28;6001693;28;20741;-68
2022/09/22 14:12:14;;;;;;;4.35;1.85;;;;;;;19.95;40.46;101633.03;5999784;28;20061;-68